Time;durP1;ratioP1;P1;durP2;ratioP2;P2;SDS_P1;SDS_P2;PMS_P1;PMS_P2;Temp;Humidity;BMP_temperature;BMP_pressure;BME280_temperature;BME280_humidity;BME280_pressure;Samples;Min_cycle;Max_cycle;Signal;HPM_P1;HPM_P2
2022/12/26 00:01:25;;;;;;;1.80;1.70;;;;;;;21.15;38.16;100890.94;5063926;28;20143;-70
2022/12/26 00:03:51;;;;;;;1.98;1.80;;;;;;;21.16;38.36;100878.53;5066547;28;20036;-71
2022/12/26 00:06:20;;;;;;;2.00;1.75;;;;;;;21.19;38.01;100875.53;5076247;28;20047;-69
2022/12/26 00:08:46;;;;;;;2.15;1.95;;;;;;;21.19;38.05;100870.22;5063845;28;20121;-72
2022/12/26 00:11:13;;;;;;;2.20;2.00;;;;;;;21.15;38.10;100871.59;5069742;28;20066;-70
2022/12/26 00:13:39;;;;;;;2.15;1.95;;;;;;;21.15;38.07;100879.53;5075518;28;20106;-71
2022/12/26 00:16:16;;;;;;;1.90;1.70;;;;;;;21.17;38.16;100888.09;5075618;28;20674;-71
2022/12/26 00:18:42;;;;;;;2.20;2.00;;;;;;;21.16;38.00;100886.47;5075519;28;20382;-72
2022/12/26 00:21:10;;;;;;;1.63;1.52;;;;;;;21.16;38.29;100897.06;5073898;28;20083;-71
2022/12/26 00:23:37;;;;;;;1.88;1.77;;;;;;;21.10;38.12;100888.88;5073318;28;20074;-70
2022/12/26 00:26:04;;;;;;;2.17;1.98;;;;;;;21.18;38.04;100877.31;5070305;28;20032;-70
2022/12/26 00:28:30;;;;;;;1.98;1.80;;;;;;;21.18;38.05;100868.56;5070140;28;20040;-71
2022/12/26 00:30:56;;;;;;;2.00;1.80;;;;;;;21.18;37.98;100873.84;5070739;28;20387;-71
2022/12/26 00:33:21;;;;;;;2.28;1.80;;;;;;;21.14;38.31;100878.72;5068316;28;20055;-70
2022/12/26 00:35:47;;;;;;;1.80;1.70;;;;;;;21.17;38.16;100873.03;5074933;28;20060;-71
2022/12/26 00:38:12;;;;;;;2.10;1.90;;;;;;;21.19;37.97;100868.41;5070506;28;20125;-72
2022/12/26 00:40:42;;;;;;;1.90;1.80;;;;;;;21.26;37.78;100871.97;5070369;28;20066;-70
2022/12/26 00:43:08;;;;;;;1.80;1.70;;;;;;;21.41;37.41;100867.44;5071449;28;20089;-71
2022/12/26 00:45:34;;;;;;;2.10;1.80;;;;;;;21.46;37.46;100869.50;5067991;28;20036;-71
2022/12/26 00:48:00;;;;;;;1.48;1.38;;;;;;;21.47;37.61;100867.69;5070852;28;20044;-71
2022/12/26 00:50:26;;;;;;;1.52;1.42;;;;;;;21.46;37.82;100866.84;5068751;28;20048;-71
2022/12/26 00:52:52;;;;;;;1.70;1.60;;;;;;;21.35;37.84;100864.69;5070178;28;20382;-71
2022/12/26 00:55:17;;;;;;;1.70;1.60;;;;;;;21.38;37.54;100862.53;5070956;28;20040;-71
2022/12/26 00:57:43;;;;;;;1.48;1.38;;;;;;;21.41;37.53;100869.25;5067592;28;20040;-71
2022/12/26 01:00:09;;;;;;;1.80;1.70;;;;;;;21.30;37.68;100865.28;5069115;28;20032;-71
2022/12/26 01:02:38;;;;;;;2.33;2.13;;;;;;;21.38;37.92;100880.25;5064248;28;20043;-71
2022/12/26 01:05:08;;;;;;;2.20;2.00;;;;;;;21.39;37.70;100890.66;5070291;28;20537;-70
2022/12/26 01:07:35;;;;;;;1.63;1.52;;;;;;;21.37;37.97;100887.38;5065712;28;20063;-71
2022/12/26 01:10:02;;;;;;;1.73;1.63;;;;;;;21.43;37.63;100885.78;5063594;28;20067;-71
2022/12/26 01:12:29;;;;;;;1.70;1.60;;;;;;;21.39;37.94;100890.66;5067292;28;20032;-70
2022/12/26 01:14:55;;;;;;;1.70;1.60;;;;;;;21.35;37.82;100893.84;5065232;28;20056;-71
2022/12/26 01:17:21;;;;;;;1.55;1.45;;;;;;;21.37;38.08;100890.03;5068689;28;20714;-71
2022/12/26 01:19:46;;;;;;;1.70;1.60;;;;;;;21.36;38.00;100895.47;5071481;28;20048;-71
2022/12/26 01:22:12;;;;;;;1.83;1.73;;;;;;;21.37;37.89;100897.16;5070647;28;20048;-71
2022/12/26 01:24:37;;;;;;;1.60;1.50;;;;;;;21.35;37.73;100899.13;5066279;28;20580;-70
2022/12/26 01:27:03;;;;;;;1.60;1.50;;;;;;;21.38;37.70;100890.84;5065734;28;20063;-71
2022/12/26 01:29:28;;;;;;;1.60;1.50;;;;;;;21.37;37.66;100892.66;5070141;28;20036;-70
2022/12/26 01:31:54;;;;;;;1.58;1.48;;;;;;;21.35;38.12;100901.78;5073022;28;20044;-71
2022/12/26 01:34:20;;;;;;;1.50;1.40;;;;;;;21.38;37.77;100896.13;5063190;28;20227;-71
2022/12/26 01:36:45;;;;;;;2.30;1.80;;;;;;;21.35;38.09;100893.84;5063840;28;20512;-71
2022/12/26 01:39:11;;;;;;;1.40;1.30;;;;;;;21.37;37.86;100891.84;5064357;28;20122;-71
2022/12/26 01:41:37;;;;;;;2.00;1.80;;;;;;;21.34;38.04;100894.84;5063514;28;20028;-71
2022/12/26 01:44:05;;;;;;;1.70;1.60;;;;;;;21.34;37.81;100887.72;5064612;28;20040;-71
2022/12/26 01:46:42;;;;;;;1.98;1.77;;;;;;;21.37;38.10;100892.66;5067417;28;20129;-71
2022/12/26 01:49:25;;;;;;;1.90;1.60;;;;;;;21.21;37.80;100890.22;5065121;28;20070;-71
2022/12/26 01:51:57;;;;;;;2.03;1.90;;;;;;;21.28;38.04;100891.13;5066503;28;20036;-71
2022/12/26 01:54:25;;;;;;;1.75;1.65;;;;;;;21.32;38.04;100904.81;5072645;28;20047;-71
2022/12/26 01:56:51;;;;;;;1.67;1.58;;;;;;;21.30;38.08;100904.19;5070358;28;20100;-71
2022/12/26 01:59:19;;;;;;;1.52;1.42;;;;;;;21.34;37.90;100910.75;5065747;28;20474;-71
2022/12/26 02:01:48;;;;;;;1.63;1.50;;;;;;;21.29;37.99;100916.59;5066059;28;20488;-71
2022/12/26 02:07:03;;;;;;;1.58;1.48;;;;;;;21.29;37.87;100911.31;5065798;28;19980;-71
2022/12/26 02:09:29;;;;;;;1.90;1.80;;;;;;;21.25;38.16;100907.41;5067426;28;20043;-70
2022/12/26 02:12:09;;;;;;;1.73;1.63;;;;;;;21.28;38.16;100908.84;5072569;28;20105;-71
2022/12/26 02:14:36;;;;;;;1.60;1.50;;;;;;;21.27;37.84;100913.31;5066813;28;20058;-71
2022/12/26 02:17:02;;;;;;;1.90;1.67;;;;;;;21.24;37.86;100911.06;5071561;28;20046;-71
2022/12/26 02:19:34;;;;;;;1.63;1.52;;;;;;;21.28;37.87;100898.25;5073705;28;20048;-70
2022/12/26 02:22:12;;;;;;;1.67;1.33;;;;;;;21.26;38.00;100894.97;5068162;28;20458;-70
2022/12/26 02:24:58;;;;;;;1.88;1.77;;;;;;;21.25;37.97;100896.81;5070809;28;20044;-71
2022/12/26 02:28:01;;;;;;;1.52;1.42;;;;;;;21.25;38.10;100893.34;5064018;28;20142;-70
2022/12/26 02:31:01;;;;;;;1.70;1.60;;;;;;;21.25;38.18;100896.00;5070162;28;20047;-70
2022/12/26 02:33:44;;;;;;;1.58;1.48;;;;;;;21.18;38.01;100890.56;5067258;28;20063;-70
2022/12/26 02:36:21;;;;;;;1.50;1.40;;;;;;;21.17;38.20;100888.94;5072338;28;20036;-71
2022/12/26 02:39:05;;;;;;;1.48;1.38;;;;;;;21.26;37.84;100894.97;5072034;28;20105;-71
2022/12/26 02:42:09;;;;;;;1.75;1.58;;;;;;;21.15;38.14;100882.19;5064527;28;20164;-70
2022/12/26 02:48:13;;;;;;;1.65;1.55;;;;;;;21.20;38.19;100887.75;5065281;28;20040;-70
2022/12/26 03:14:24;;;;;;;1.33;1.23;;;;;;;21.25;37.93;100856.25;5023733;28;20051;-71
2022/12/26 03:19:56;;;;;;;;;;;;;;;21.33;37.89;100854.28;5072112;28;20036;-70
2022/12/26 03:22:37;;;;;;;1.38;1.27;;;;;;;21.36;37.64;100851.28;5071252;28;20009;-71
2022/12/26 03:27:56;;;;;;;1.40;1.30;;;;;;;21.35;37.67;100857.56;5066325;28;20572;-70
2022/12/26 03:34:16;;;;;;;1.17;1.17;;;;;;;21.29;37.94;100860.16;5064256;28;20068;-71
2022/12/26 03:35:52;;;;;;;1.27;1.20;;;;;;;21.33;37.76;100856.94;5068739;28;20379;-67
2022/12/26 03:38:22;;;;;;;1.05;1.05;;;;;;;21.36;37.76;100861.91;5066640;28;20066;-71
2022/12/26 04:44:23;;;;;;;1.48;1.38;;;;;;;21.21;38.05;100847.84;5072185;28;20047;-71
2022/12/26 04:46:51;;;;;;;1.85;1.23;;;;;;;21.19;38.27;100851.69;5070410;28;20043;-71
2022/12/26 04:52:05;;;;;;;1.30;1.20;;;;;;;21.16;38.30;100844.09;5074546;28;20123;-71
2022/12/26 04:54:31;;;;;;;1.48;1.30;;;;;;;21.14;38.12;100839.00;5070220;28;20474;-71
2022/12/26 04:56:56;;;;;;;1.48;1.38;;;;;;;21.13;38.36;100847.94;5074048;28;20044;-71
2022/12/26 04:59:22;;;;;;;1.10;1.10;;;;;;;21.16;38.14;100838.81;5071965;28;20093;-70
2022/12/26 05:10:39;;;;;;;1.77;1.60;;;;;;;21.16;38.46;100844.09;5066201;28;20040;-71
2022/12/26 05:13:04;;;;;;;1.42;1.33;;;;;;;21.18;38.34;100850.03;5055047;28;20127;-71
2022/12/26 05:28:40;;;;;;;1.30;1.20;;;;;;;21.08;38.39;100839.75;5068018;28;20474;-71
2022/12/26 05:29:14;;;;;;;1.10;1.10;;;;;;;21.25;37.97;100857.09;5069069;28;20614;-71
2022/12/26 05:31:39;;;;;;;1.20;1.13;;;;;;;21.26;38.07;100849.97;5064856;28;20052;-72
2022/12/26 05:34:14;;;;;;;1.50;1.40;;;;;;;21.27;38.00;100844.47;5067507;28;20032;-70
2022/12/26 05:36:54;;;;;;;1.25;1.15;;;;;;;21.27;38.10;100846.28;5066033;28;20060;-71
2022/12/26 05:39:19;;;;;;;1.40;1.30;;;;;;;21.24;38.28;100846.66;5049135;28;20654;-70
2022/12/26 05:41:45;;;;;;;1.30;1.20;;;;;;;21.16;38.17;100820.28;5067149;28;20036;-71
2022/12/26 05:44:11;;;;;;;1.40;1.30;;;;;;;21.24;38.28;100851.94;5064706;28;20035;-70
2022/12/26 05:46:37;;;;;;;1.23;1.13;;;;;;;21.22;38.32;100849.47;5066142;28;20767;-70
2022/12/26 05:49:04;;;;;;;1.48;1.38;;;;;;;21.21;38.04;100849.69;5064812;28;20549;-71
2022/12/26 05:51:30;;;;;;;1.52;1.42;;;;;;;21.24;38.07;100850.16;5063841;28;20042;-70
2022/12/26 05:53:55;;;;;;;1.50;1.40;;;;;;;21.21;38.16;100853.16;5066795;28;20177;-71
2022/12/26 05:56:21;;;;;;;1.30;1.20;;;;;;;21.22;38.33;100849.47;5065008;28;20719;-71
2022/12/26 05:58:56;;;;;;;1.75;1.65;;;;;;;21.23;38.34;100851.13;5064854;28;20036;-71
2022/12/26 06:01:23;;;;;;;1.45;1.35;;;;;;;21.22;38.17;100846.03;5064455;28;20852;-70
2022/12/26 06:03:54;;;;;;;1.40;1.30;;;;;;;21.20;38.32;100842.75;5067734;28;20048;-71
2022/12/26 06:06:21;;;;;;;1.35;1.25;;;;;;;21.21;38.49;100854.97;5065763;28;20036;-71
2022/12/26 06:08:48;;;;;;;1.58;1.48;;;;;;;21.22;38.24;100856.63;5068000;28;20035;-71
2022/12/26 06:11:14;;;;;;;1.33;1.23;;;;;;;21.20;38.41;100864.75;5063016;28;20493;-71
2022/12/26 06:13:40;;;;;;;1.90;1.30;;;;;;;21.13;38.51;100871.78;5068249;28;20050;-71
2022/12/26 06:16:09;;;;;;;1.25;1.17;;;;;;;21.19;38.25;100862.28;5066176;28;20036;-71
2022/12/26 06:18:34;;;;;;;1.48;1.38;;;;;;;21.30;38.17;100851.22;5067756;28;20039;-70
2022/12/26 06:21:26;;;;;;;1.20;1.20;;;;;;;21.38;37.88;100862.53;5064392;28;20032;-71
2022/12/26 06:23:52;;;;;;;1.20;1.13;;;;;;;21.47;37.66;100859.72;5062096;28;20151;-71
2022/12/26 06:26:17;;;;;;;1.50;1.40;;;;;;;21.45;37.64;100862.56;5063858;28;20713;-71
2022/12/26 06:28:43;;;;;;;1.20;1.13;;;;;;;21.42;38.06;100858.47;5065829;28;20051;-71
2022/12/26 06:31:13;;;;;;;1.40;1.30;;;;;;;21.42;37.73;100855.00;5060613;28;20036;-71
2022/12/26 06:33:39;;;;;;;1.60;1.50;;;;;;;21.41;38.07;100854.19;5064836;28;20043;-69
2022/12/26 06:36:10;;;;;;;1.40;1.30;;;;;;;21.34;37.84;100848.00;5067610;28;20093;-70
2022/12/26 06:38:36;;;;;;;1.90;1.33;;;;;;;21.37;38.17;100847.63;5066949;28;20051;-70
2022/12/26 06:41:06;;;;;;;1.30;1.20;;;;;;;21.38;38.19;100840.50;5068156;28;22209;-71
2022/12/26 06:43:32;;;;;;;1.33;1.23;;;;;;;21.36;38.16;100839.84;5067034;28;20098;-71
2022/12/26 06:45:59;;;;;;;1.58;1.48;;;;;;;21.30;38.07;100843.25;5066103;28;20529;-71
2022/12/26 06:48:25;;;;;;;1.63;1.52;;;;;;;21.31;38.29;100837.78;5061281;28;20112;-71
2022/12/26 06:50:53;;;;;;;1.30;1.23;;;;;;;21.29;38.28;100828.38;5066296;28;20554;-71
2022/12/26 06:53:20;;;;;;;1.30;1.20;;;;;;;21.35;38.19;100839.03;5065625;28;20040;-71
2022/12/26 06:55:46;;;;;;;1.52;1.15;;;;;;;21.33;38.14;100838.41;5063650;28;20054;-70
2022/12/26 06:58:13;;;;;;;1.17;1.08;;;;;;;21.35;37.95;100838.22;5068864;28;20043;-70
2022/12/26 07:00:39;;;;;;;1.50;1.40;;;;;;;21.37;38.02;100823.78;5065152;28;20587;-71
2022/12/26 07:03:04;;;;;;;1.40;1.30;;;;;;;21.31;38.27;100826.38;5080962;28;20506;-71
2022/12/26 07:05:30;;;;;;;1.60;1.50;;;;;;;21.30;38.14;100819.44;5068721;28;20032;-71
2022/12/26 07:07:55;;;;;;;1.48;1.38;;;;;;;21.25;38.29;100819.19;5064532;28;20051;-71
2022/12/26 07:10:21;;;;;;;1.77;1.60;;;;;;;21.29;38.30;100828.38;5067066;28;20066;-72
2022/12/26 07:12:47;;;;;;;1.42;1.27;;;;;;;21.28;38.16;100811.66;5066968;28;20123;-71
2022/12/26 07:15:14;;;;;;;1.50;1.40;;;;;;;21.26;38.09;100821.66;5066866;28;20032;-70
2022/12/26 07:17:39;;;;;;;1.60;1.50;;;;;;;21.24;38.31;100825.47;5064806;28;20043;-70
2022/12/26 07:20:06;;;;;;;1.48;1.38;;;;;;;21.26;38.24;100832.22;5064982;28;20085;-70
2022/12/26 07:22:32;;;;;;;1.23;1.17;;;;;;;21.27;38.24;100831.22;5066696;28;20129;-71
2022/12/26 07:24:57;;;;;;;1.55;1.45;;;;;;;21.25;38.27;100816.53;5064278;28;20036;-70
2022/12/26 07:27:23;;;;;;;1.60;1.50;;;;;;;21.24;38.17;100826.31;5060918;28;20032;-70
2022/12/26 07:29:48;;;;;;;1.60;1.50;;;;;;;21.24;38.42;100818.38;5062046;28;20780;-70
2022/12/26 07:32:14;;;;;;;0.95;0.95;;;;;;;21.27;38.14;100809.22;5059635;28;20912;-70
2022/12/26 07:34:40;;;;;;;1.58;1.48;;;;;;;21.26;38.27;100811.03;5066366;28;20033;-70
2022/12/26 07:37:06;;;;;;;1.50;1.40;;;;;;;21.25;38.22;100812.06;5066099;28;20052;-71
2022/12/26 07:39:31;;;;;;;1.90;1.30;;;;;;;21.30;38.15;100814.94;5062832;28;20043;-71
2022/12/26 07:41:57;;;;;;;1.23;1.17;;;;;;;21.27;38.61;100817.16;5065394;28;20031;-70
2022/12/26 07:44:23;;;;;;;1.30;1.20;;;;;;;21.25;38.29;100813.88;5065573;28;20044;-70
2022/12/26 07:46:49;;;;;;;1.58;1.48;;;;;;;21.27;38.32;100815.34;5066711;28;20044;-71
2022/12/26 07:49:14;;;;;;;1.83;1.45;;;;;;;21.27;38.23;100806.56;5058426;28;20052;-71
2022/12/26 07:51:41;;;;;;;1.15;1.13;;;;;;;21.30;38.37;100808.84;5063226;28;20070;-71
2022/12/26 07:54:07;;;;;;;1.20;1.15;;;;;;;21.27;38.39;100806.56;5065127;28;20044;-70
2022/12/26 07:56:33;;;;;;;1.40;1.30;;;;;;;21.22;38.57;100806.28;5067291;28;20066;-72
2022/12/26 07:58:59;;;;;;;1.40;1.30;;;;;;;21.23;38.39;100802.63;5067357;28;20417;-70
2022/12/26 08:01:24;;;;;;;1.45;1.35;;;;;;;21.19;38.66;100794.25;5069604;28;20109;-71
2022/12/26 08:03:50;;;;;;;1.48;1.38;;;;;;;21.23;38.31;100795.50;5074530;28;20058;-71
2022/12/26 08:06:16;;;;;;;1.35;1.25;;;;;;;21.26;38.37;100802.28;5071516;28;20138;-71
2022/12/26 08:08:42;;;;;;;1.30;1.20;;;;;;;21.25;38.29;100798.81;5068838;28;20040;-70
2022/12/26 08:11:12;;;;;;;1.50;1.20;;;;;;;21.25;38.75;100793.53;5069176;28;20047;-71
2022/12/26 08:13:38;;;;;;;1.40;1.30;;;;;;;21.17;38.42;100793.59;5072221;28;20060;-71
2022/12/26 08:16:06;;;;;;;1.13;1.13;;;;;;;21.21;38.57;100784.28;5068012;28;20413;-71
2022/12/26 08:18:31;;;;;;;2.03;1.40;;;;;;;21.12;38.54;100780.13;5066980;28;20032;-70
2022/12/26 08:20:57;;;;;;;1.40;1.30;;;;;;;21.23;38.36;100797.34;5062933;28;20040;-71
2022/12/26 08:23:23;;;;;;;1.27;1.20;;;;;;;21.24;38.54;100783.09;5066219;28;20038;-70
2022/12/26 08:25:48;;;;;;;1.45;1.35;;;;;;;21.20;38.62;100793.25;5066638;28;20041;-69
2022/12/26 08:28:14;;;;;;;1.40;1.30;;;;;;;21.18;38.74;100787.28;5068641;28;20051;-69
2022/12/26 08:30:40;;;;;;;1.50;1.40;;;;;;;21.23;38.71;100800.00;5066681;28;20658;-69
2022/12/26 08:33:06;;;;;;;1.40;1.30;;;;;;;21.15;38.84;100797.44;5067031;28;20978;-69
2022/12/26 08:35:36;;;;;;;1.48;1.33;;;;;;;21.17;38.61;100798.91;5064533;28;20043;-69
2022/12/26 08:38:02;;;;;;;1.60;1.50;;;;;;;21.21;38.77;100783.47;5068043;28;20058;-69
2022/12/26 08:40:27;;;;;;;1.40;1.30;;;;;;;21.15;38.83;100798.28;5067370;28;20040;-69
2022/12/26 08:42:53;;;;;;;1.40;1.30;;;;;;;21.21;38.65;100794.06;5074114;28;20029;-70
2022/12/26 08:45:18;;;;;;;1.40;1.30;;;;;;;21.16;38.90;100784.00;5064485;28;20028;-70
2022/12/26 08:47:44;;;;;;;1.23;1.13;;;;;;;21.17;38.52;100792.78;5067363;28;20170;-70
2022/12/26 08:50:10;;;;;;;1.40;1.30;;;;;;;21.24;38.61;100798.97;5074119;28;20036;-70
2022/12/26 08:52:35;;;;;;;1.40;1.30;;;;;;;21.22;38.49;100801.00;5073037;28;20046;-70
2022/12/26 08:55:01;;;;;;;1.27;1.27;;;;;;;21.29;38.42;100799.25;5068444;28;20043;-70
2022/12/26 08:57:27;;;;;;;1.00;1.00;;;;;;;21.27;38.50;100801.28;5068775;28;20048;-70
2022/12/26 08:59:53;;;;;;;1.50;1.40;;;;;;;21.31;38.20;100806.00;5069499;28;20059;-70
2022/12/26 09:02:18;;;;;;;1.73;1.10;;;;;;;21.27;38.28;100802.09;5062840;28;20040;-70
2022/12/26 09:04:44;;;;;;;1.02;1.02;;;;;;;21.34;38.37;100812.72;5079326;28;20105;-69
2022/12/26 09:07:09;;;;;;;1.67;1.30;;;;;;;21.33;38.54;100811.09;5073434;28;20474;-70
2022/12/26 09:09:35;;;;;;;1.50;1.40;;;;;;;21.31;38.26;100807.81;5069290;28;20042;-69
2022/12/26 09:12:01;;;;;;;1.23;1.05;;;;;;;21.33;38.41;100811.09;5072736;28;20115;-70
2022/12/26 09:14:28;;;;;;;1.35;1.25;;;;;;;21.28;38.38;100802.91;5071443;28;20098;-69
2022/12/26 09:16:53;;;;;;;1.00;1.00;;;;;;;21.30;38.51;100803.53;5065492;28;20041;-69
2022/12/26 09:19:20;;;;;;;2.10;1.40;;;;;;;21.29;38.57;100805.38;5063250;28;20040;-69
2022/12/26 09:21:47;;;;;;;1.23;1.13;;;;;;;21.30;38.64;100811.47;5066808;28;20047;-70
2022/12/26 09:24:16;;;;;;;1.08;1.08;;;;;;;21.26;38.61;100807.59;5072678;28;20036;-69
2022/12/26 09:26:43;;;;;;;1.60;1.10;;;;;;;21.25;38.56;100812.06;5076755;28;20592;-69
2022/12/26 09:29:10;;;;;;;1.30;1.20;;;;;;;21.29;38.46;100812.50;5067592;28;20470;-70
2022/12/26 09:31:35;;;;;;;1.70;1.40;;;;;;;21.25;38.61;100801.47;5068528;28;20490;-70
2022/12/26 09:34:03;;;;;;;1.85;1.25;;;;;;;21.27;38.53;100827.75;5070743;28;20043;-70
2022/12/26 09:36:31;;;;;;;1.40;1.30;;;;;;;21.24;38.63;100818.38;5067835;28;20429;-70
2022/12/26 09:38:58;;;;;;;1.38;1.00;;;;;;;21.29;38.27;100821.25;5070223;28;20031;-70
2022/12/26 09:41:49;;;;;;;1.30;1.10;;;;;;;21.28;38.58;100826.75;5070337;28;20073;-70
2022/12/26 09:44:42;;;;;;;2.13;1.30;;;;;;;21.23;38.72;100837.06;5068957;28;20044;-70
2022/12/26 09:47:33;;;;;;;0.90;0.80;;;;;;;21.24;38.37;100854.59;5062496;28;20044;-70
2022/12/26 09:50:21;;;;;;;1.27;1.10;;;;;;;21.18;38.59;100834.13;5065578;28;20032;-70
2022/12/26 09:52:56;;;;;;;1.08;1.08;;;;;;;21.16;38.54;100834.34;5067887;28;20121;-70
2022/12/26 09:55:41;;;;;;;1.30;1.20;;;;;;;21.24;38.57;100859.88;5071530;28;20786;-70
2022/12/26 09:58:31;;;;;;;1.20;1.10;;;;;;;21.19;38.55;100868.41;5068023;28;20127;-70
2022/12/26 10:01:12;;;;;;;;;;;;;;;21.24;38.40;100875.78;5072020;28;20049;-71
2022/12/26 10:03:42;;;;;;;1.45;0.90;;;;;;;21.23;38.41;100901.44;5069770;28;19996;-70
2022/12/26 10:06:15;;;;;;;1.40;1.30;;;;;;;21.22;38.58;100913.03;5067907;28;20040;-69
2022/12/26 10:09:03;;;;;;;1.40;1.10;;;;;;;21.18;38.87;100900.34;5059878;28;20040;-70
2022/12/26 10:11:41;;;;;;;1.40;1.30;;;;;;;21.21;38.66;100914.06;5066062;28;20658;-71
2022/12/26 10:14:22;;;;;;;1.60;0.93;;;;;;;21.17;38.87;100926.00;5064745;28;20397;-71
2022/12/26 10:16:55;;;;;;;4.22;1.10;;;;;;;21.25;38.71;100919.81;5065470;28;20119;-71
2022/12/26 10:19:33;;;;;;;0.90;0.90;;;;;;;21.45;38.18;100939.41;5067380;28;20043;-71
2022/12/26 10:22:15;;;;;;;1.20;1.10;;;;;;;21.71;37.54;100942.31;5064094;28;20044;-70
2022/12/26 10:24:43;;;;;;;1.13;1.00;;;;;;;21.76;37.45;100935.66;5069018;28;20059;-70
2022/12/26 10:27:14;;;;;;;1.73;1.27;;;;;;;21.77;37.30;100945.22;5066134;28;20043;-70
2022/12/26 10:29:56;;;;;;;1.20;1.10;;;;;;;21.76;37.67;100960.31;5067500;28;20250;-74
2022/12/26 10:32:43;;;;;;;1.30;1.10;;;;;;;21.75;37.52;100965.81;5056970;28;20064;-71
2022/12/26 10:35:34;;;;;;;1.52;1.27;;;;;;;21.70;38.04;100971.66;5061954;28;20034;-71
2022/12/26 10:38:28;;;;;;;0.65;0.65;;;;;;;21.73;37.92;100978.44;5062771;28;20077;-71
2022/12/26 10:41:02;;;;;;;3.78;1.00;;;;;;;21.69;37.88;100977.97;5069250;28;20036;-70
2022/12/26 10:43:31;;;;;;;1.15;1.05;;;;;;;21.63;38.25;100978.72;5072603;28;20024;-70
2022/12/26 10:45:57;;;;;;;1.25;1.00;;;;;;;21.61;38.02;100996.66;5071425;28;20797;-71
2022/12/26 10:48:26;;;;;;;2.08;1.33;;;;;;;21.59;38.05;100993.38;5067626;28;20028;-72
2022/12/26 10:50:52;;;;;;;;;;;;;;;21.51;38.49;101004.06;5066524;28;20032;-72
2022/12/26 10:53:18;;;;;;;2.28;1.20;;;;;;;21.45;38.28;101004.81;5069618;28;19924;-71
2022/12/26 10:55:44;;;;;;;1.55;0.90;;;;;;;21.47;38.47;101016.03;5078789;28;20044;-71
2022/12/26 10:58:27;;;;;;;2.28;1.10;;;;;;;21.47;38.21;101013.41;5069939;28;20502;-71
2022/12/26 11:00:52;;;;;;;1.30;0.95;;;;;;;21.50;38.43;101021.78;5081648;28;20040;-71
2022/12/26 11:03:19;;;;;;;1.70;0.90;;;;;;;21.45;38.37;101042.72;5079560;28;20051;-71
2022/12/26 11:05:51;;;;;;;2.08;1.85;;;;;;;21.45;38.57;101041.91;5076618;28;20086;-71
2022/12/26 11:08:45;;;;;;;1.15;0.82;;;;;;;21.46;38.67;101054.97;5077373;28;20048;-70
2022/12/26 11:11:13;;;;;;;1.10;1.00;;;;;;;21.46;38.51;101072.69;5074491;28;20052;-70
2022/12/26 11:13:45;;;;;;;1.02;0.93;;;;;;;21.40;38.48;101067.13;5076290;28;20127;-71
2022/12/26 11:16:11;;;;;;;1.73;1.13;;;;;;;21.45;38.73;101079.81;5068378;28;20409;-70
2022/12/26 11:18:47;;;;;;;2.80;1.05;;;;;;;21.42;38.46;101080.19;5076588;28;20059;-71
2022/12/26 11:21:22;;;;;;;0.73;0.73;;;;;;;21.42;38.54;101085.50;5074229;28;20043;-70
2022/12/26 11:23:51;;;;;;;1.60;1.30;;;;;;;21.38;38.30;101090.34;5074328;28;20044;-71
2022/12/26 11:26:23;;;;;;;1.50;1.10;;;;;;;21.40;38.62;101092.81;5073948;28;20036;-70
2022/12/26 11:29:08;;;;;;;0.77;0.73;;;;;;;21.41;38.68;101100.56;5073233;28;20389;-70
2022/12/26 11:31:35;;;;;;;1.83;1.13;;;;;;;21.41;38.59;101103.22;5077219;28;20055;-71
2022/12/26 11:34:07;;;;;;;1.13;1.00;;;;;;;21.40;38.55;101109.53;5080554;28;20492;-70
2022/12/26 11:36:35;;;;;;;1.35;1.10;;;;;;;21.38;38.57;101108.06;5079220;28;20056;-71
2022/12/26 11:39:25;;;;;;;1.80;1.05;;;;;;;21.37;38.64;101107.25;5077825;28;20051;-71
2022/12/26 11:41:51;;;;;;;1.63;1.20;;;;;;;21.36;38.55;101118.84;5082119;28;20082;-71
2022/12/26 11:44:41;;;;;;;1.00;0.90;;;;;;;21.32;38.49;101119.38;5081174;28;20654;-71
2022/12/26 11:47:14;;;;;;;1.53;1.03;;;;;;;21.37;38.34;101128.44;5078859;28;20028;-71
2022/12/26 11:50:05;;;;;;;1.83;0.95;;;;;;;21.30;38.49;101132.78;5073588;28;20442;-71
2022/12/26 11:52:45;;;;;;;0.73;0.73;;;;;;;21.33;38.47;101136.91;5075766;28;20039;-71
2022/12/26 11:55:34;;;;;;;2.47;1.17;;;;;;;21.24;38.35;101120.28;5077041;28;20499;-71
2022/12/26 11:58:07;;;;;;;0.98;0.90;;;;;;;21.33;38.47;101145.66;5080825;28;20129;-71
2022/12/26 12:00:48;;;;;;;1.45;0.85;;;;;;;21.32;38.36;101148.50;5073613;28;20738;-59
2022/12/26 12:03:18;;;;;;;1.10;0.80;;;;;;;21.30;38.43;101150.50;5080484;28;20036;-59
2022/12/26 12:06:11;;;;;;;1.05;0.88;;;;;;;21.28;38.58;101158.66;5077106;28;20067;-60
2022/12/26 12:08:52;;;;;;;1.00;0.80;;;;;;;21.27;38.48;101169.44;5077249;28;20035;-60
2022/12/26 12:11:26;;;;;;;1.10;1.00;;;;;;;21.32;38.33;101161.75;5077724;28;20535;-60
2022/12/26 12:14:11;;;;;;;1.75;0.85;;;;;;;21.29;38.46;101170.06;5076609;28;20286;-60
2022/12/26 12:17:10;;;;;;;1.15;0.90;;;;;;;21.31;38.50;101168.88;5076660;28;20036;-59
2022/12/26 12:19:47;;;;;;;0.85;0.75;;;;;;;21.32;38.37;101167.03;5050058;28;20059;-60
2022/12/26 12:22:38;;;;;;;1.67;0.93;;;;;;;21.30;38.32;101184.94;5079246;28;20040;-60
2022/12/26 12:25:32;;;;;;;1.42;1.08;;;;;;;21.29;38.57;101178.84;5076461;28;20043;-60
2022/12/26 12:28:16;;;;;;;0.60;0.60;;;;;;;21.24;38.50;101188.31;5080162;28;20440;-59
2022/12/26 12:30:41;;;;;;;1.42;1.10;;;;;;;21.25;38.44;101176.72;5083906;28;20041;-59
2022/12/26 12:33:13;;;;;;;2.78;1.15;;;;;;;21.26;38.39;101181.84;5073639;28;20040;-60
2022/12/26 12:35:58;;;;;;;1.23;0.80;;;;;;;21.28;38.36;101192.25;5078931;28;20117;-59
2022/12/26 12:38:33;;;;;;;2.20;1.00;;;;;;;21.23;38.33;101191.94;5075513;28;20764;-59
2022/12/26 12:41:08;;;;;;;1.08;0.90;;;;;;;21.25;38.25;101195.28;5076276;28;20028;-59
2022/12/26 12:43:52;;;;;;;1.38;0.88;;;;;;;21.23;38.38;101202.56;5075414;28;20122;-59
2022/12/26 12:46:39;;;;;;;0.73;0.70;;;;;;;21.21;38.35;101193.97;5076351;28;20040;-60
2022/12/26 12:49:10;;;;;;;1.10;0.88;;;;;;;21.21;38.48;101215.97;5074582;28;20146;-59
2022/12/26 12:51:45;;;;;;;0.90;0.80;;;;;;;21.20;38.37;101216.97;5075757;28;20623;-59
2022/12/26 12:54:45;;;;;;;1.23;0.90;;;;;;;21.28;38.48;101221.41;5074445;28;20028;-60
2022/12/26 12:57:22;;;;;;;1.08;0.70;;;;;;;21.43;37.86;101222.25;5055129;28;20101;-60
2022/12/26 12:59:55;;;;;;;1.50;0.80;;;;;;;21.62;37.72;101223.53;5077198;28;20040;-59
2022/12/26 13:02:30;;;;;;;0.93;0.80;;;;;;;21.67;37.36;101235.25;5074838;28;20043;-59
2022/12/26 13:05:18;;;;;;;1.73;0.90;;;;;;;21.66;37.40;101240.72;5077048;28;20111;-60
2022/12/26 13:07:53;;;;;;;1.15;0.88;;;;;;;21.63;37.66;101241.91;5079215;28;20078;-59
2022/12/26 13:10:26;;;;;;;1.25;0.70;;;;;;;21.58;37.55;101227.56;5074280;28;20367;-60
2022/12/26 13:12:53;;;;;;;0.77;0.63;;;;;;;21.54;37.89;101242.16;5080159;28;20039;-59
2022/12/26 13:15:33;;;;;;;1.45;0.75;;;;;;;21.57;37.74;101247.13;5079168;28;20491;-60
2022/12/26 13:18:01;;;;;;;;;;;;;;;21.55;37.65;101254.44;5066906;28;20391;-59
2022/12/26 13:20:38;;;;;;;1.40;0.85;;;;;;;21.49;37.94;101265.75;5075055;28;20028;-59
2022/12/26 13:26:18;;;;;;;2.05;0.98;;;;;;;21.44;38.06;101279.53;5073418;28;20203;-60
2022/12/26 13:29:10;;;;;;;1.60;0.75;;;;;;;21.37;37.83;101275.97;5075753;28;20040;-60
2022/12/26 13:31:37;;;;;;;1.70;0.80;;;;;;;21.33;38.13;101291.38;5074125;28;21769;-59
2022/12/26 13:34:09;;;;;;;1.05;0.68;;;;;;;21.27;38.30;101292.09;5075206;28;20036;-60
2022/12/26 13:36:36;;;;;;;1.67;0.93;;;;;;;21.38;38.16;101294.31;5075429;28;20449;-59
2022/12/26 13:39:01;;;;;;;1.70;0.98;;;;;;;21.36;38.14;101293.69;5072510;28;20506;-59
2022/12/26 13:44:16;;;;;;;0.70;0.70;;;;;;;21.39;38.03;101287.19;5075917;28;20048;-60
2022/12/26 13:46:45;;;;;;;0.85;0.80;;;;;;;21.37;37.92;101297.97;5072348;28;20120;-60
2022/12/26 13:49:37;;;;;;;1.08;0.70;;;;;;;21.33;38.12;101298.50;5072542;28;20036;-59
2022/12/26 13:52:18;;;;;;;1.02;0.70;;;;;;;21.34;38.12;101310.72;5071535;28;20055;-59
2022/12/26 13:54:46;;;;;;;3.28;1.48;;;;;;;21.37;37.89;101307.75;5072019;28;20045;-59
2022/12/26 13:57:33;;;;;;;1.13;0.80;;;;;;;21.35;37.88;101315.03;5068796;28;20051;-60